createdAt,value
2022-08-28T00:02:24.424Z,19.21
2022-08-28T00:07:25.922Z,19.14
2022-08-28T00:12:27.529Z,19.11
2022-08-28T00:17:28.967Z,19.08
2022-08-28T00:22:30.549Z,18.99
2022-08-28T00:27:32.010Z,19.05
2022-08-28T00:32:33.467Z,19.07
2022-08-28T00:37:35.836Z,19.04
2022-08-28T00:42:37.304Z,19.16
2022-08-28T00:47:38.791Z,19.09
2022-08-28T00:52:40.589Z,19.08
2022-08-28T00:57:54.833Z,18.80
2022-08-28T01:02:57.266Z,18.82
2022-08-28T01:07:59.413Z,18.72
2022-08-28T01:13:02.047Z,18.76
2022-08-28T01:18:08.428Z,18.81
2022-08-28T01:23:22.337Z,18.86
2022-08-28T01:28:23.811Z,18.66
2022-08-28T01:33:27.946Z,18.66
2022-08-28T01:38:29.930Z,18.78
2022-08-28T01:43:31.386Z,18.91
2022-08-28T01:48:35.546Z,18.89
2022-08-28T01:53:37.623Z,18.88
2022-08-28T01:58:39.567Z,18.89
2022-08-28T02:03:41.530Z,18.86
2022-08-28T02:08:43.427Z,18.92
2022-08-28T02:13:44.895Z,18.92
2022-08-28T02:18:47.025Z,18.97
2022-08-28T02:23:48.574Z,18.90
2022-08-28T02:28:50.084Z,18.77
2022-08-28T02:33:51.566Z,18.63
2022-08-28T02:38:57.563Z,18.53
2022-08-28T02:43:59.425Z,18.67
2022-08-28T02:49:00.877Z,18.64
2022-08-28T02:54:02.521Z,18.90
2022-08-28T02:59:04.058Z,18.97
2022-08-28T03:04:05.738Z,18.76
2022-08-28T03:09:07.199Z,18.80
2022-08-28T03:14:08.695Z,18.65
2022-08-28T03:19:10.175Z,18.57
2022-08-28T03:24:11.654Z,18.51
2022-08-28T03:29:17.232Z,18.46
2022-08-28T03:34:18.851Z,18.40
2022-08-28T03:39:20.331Z,18.46
2022-08-28T03:44:21.861Z,18.55
2022-08-28T03:49:23.368Z,18.51
2022-08-28T03:54:24.879Z,18.43
2022-08-28T03:59:31.695Z,18.33
2022-08-28T04:04:35.135Z,18.59
2022-08-28T04:09:36.605Z,18.42
2022-08-28T04:14:38.348Z,18.40
2022-08-28T04:19:39.805Z,18.39
2022-08-28T04:24:41.233Z,18.29
2022-08-28T04:29:42.701Z,18.30
2022-08-28T04:34:44.208Z,18.25
2022-08-28T04:39:45.685Z,18.23
2022-08-28T04:44:48.656Z,18.22
2022-08-28T04:49:50.124Z,18.17
2022-08-28T04:54:51.667Z,18.20
2022-08-28T04:59:53.183Z,18.32
2022-08-28T05:04:54.775Z,18.30
2022-08-28T05:09:56.371Z,18.37
2022-08-28T05:14:57.811Z,18.76
2022-08-28T05:19:59.255Z,18.89
2022-08-28T05:25:00.789Z,18.61
2022-08-28T05:30:02.451Z,18.70
2022-08-28T05:35:04.250Z,18.58
2022-08-28T05:40:06.392Z,18.67
2022-08-28T05:45:08.607Z,18.75
2022-08-28T05:50:11.404Z,19.19
2022-08-28T05:55:13.188Z,19.39
2022-08-28T06:00:15.049Z,19.50
2022-08-28T06:05:16.516Z,19.65
2022-08-28T06:10:17.981Z,19.94
2022-08-28T06:15:20.669Z,20.71
2022-08-28T06:20:22.110Z,20.36
2022-08-28T06:25:23.606Z,20.42
2022-08-28T06:30:25.062Z,20.51
2022-08-28T06:35:26.541Z,21.22
2022-08-28T06:40:28.063Z,23.11
2022-08-28T06:45:29.571Z,26.38
2022-08-28T06:50:31.000Z,28.11
2022-08-28T06:55:32.484Z,24.62
2022-08-28T07:00:35.925Z,25.68
2022-08-28T07:05:37.491Z,23.79
2022-08-28T07:10:38.993Z,27.52
2022-08-28T07:15:41.935Z,27.95
2022-08-28T07:20:44.349Z,30.86
2022-08-28T07:25:45.833Z,30.77
2022-08-28T07:30:57.235Z,30.14
2022-08-28T07:36:00.489Z,32.59
2022-08-28T07:41:01.955Z,33.05
2022-08-28T07:46:06.942Z,30.42
2022-08-28T07:51:09.214Z,35.07
2022-08-28T07:56:11.213Z,35.54
2022-08-28T08:01:12.779Z,35.84
2022-08-28T08:06:14.289Z,35.18
2022-08-28T08:11:16.977Z,28.39
2022-08-28T08:16:20.031Z,29.68
2022-08-28T08:21:22.217Z,28.80
2022-08-28T08:26:25.925Z,26.00
2022-08-28T08:31:30.585Z,25.56
2022-08-28T08:36:34.637Z,26.35
2022-08-28T08:41:44.129Z,26.04
2022-08-28T08:47:11.781Z,25.17
2022-08-28T08:52:31.120Z,24.10
2022-08-28T08:57:36.604Z,24.32
2022-08-28T09:02:44.991Z,24.36
2022-08-28T09:07:55.751Z,23.96
2022-08-28T09:13:12.944Z,24.07
2022-08-28T09:18:24.623Z,25.81
2022-08-28T09:23:29.922Z,25.75
2022-08-28T09:28:41.882Z,25.31
2022-08-28T09:33:46.571Z,24.76
2022-08-28T09:39:03.369Z,25.31
2022-08-28T09:44:04.851Z,25.56
2022-08-28T09:49:13.452Z,25.29
2022-08-28T09:54:22.407Z,25.42
2022-08-28T09:59:26.135Z,25.47
2022-08-28T10:04:45.955Z,25.71
2022-08-28T10:10:06.540Z,25.66
2022-08-28T10:15:14.931Z,26.03
2022-08-28T10:20:31.583Z,25.14
2022-08-28T10:25:51.541Z,25.65
2022-08-28T10:31:22.558Z,25.75
2022-08-28T10:36:33.925Z,25.88
2022-08-28T10:41:59.449Z,25.78
2022-08-28T10:47:03.405Z,25.85
2022-08-28T10:52:12.274Z,25.95
2022-08-28T10:57:36.070Z,25.69
2022-08-28T11:02:42.052Z,25.45
2022-08-28T11:07:47.661Z,25.60
2022-08-28T11:12:52.050Z,25.71
2022-08-28T11:18:18.910Z,25.46
2022-08-28T11:23:52.419Z,25.71
2022-08-28T11:28:53.898Z,25.53
2022-08-28T11:33:55.404Z,25.21
2022-08-28T11:38:57.443Z,25.41
2022-08-28T11:44:09.077Z,25.06
2022-08-28T11:49:32.092Z,25.40
2022-08-28T11:54:55.299Z,25.38
2022-08-28T12:00:08.340Z,25.15
2022-08-28T12:05:15.890Z,24.93
2022-08-28T12:10:20.114Z,24.93
2022-08-28T12:15:27.457Z,25.06
2022-08-28T12:20:34.614Z,25.12
2022-08-28T12:25:39.310Z,25.09
2022-08-28T12:31:01.487Z,24.93
2022-08-28T12:36:04.698Z,24.89
2022-08-28T12:41:14.634Z,24.82
2022-08-28T12:46:22.198Z,24.74
2022-08-28T12:51:35.370Z,24.79
2022-08-28T12:56:38.825Z,24.89
2022-08-28T13:01:40.435Z,24.81
2022-08-28T13:06:42.015Z,24.72
2022-08-28T13:11:50.902Z,24.76
2022-08-28T13:16:52.449Z,24.80
2022-08-28T13:22:06.956Z,24.79
2022-08-28T13:27:14.102Z,24.63
2022-08-28T13:32:17.463Z,24.58
2022-08-28T13:37:56.743Z,24.40
2022-08-28T13:43:05.248Z,24.54
2022-08-28T13:48:06.708Z,24.52
2022-08-28T13:53:08.472Z,24.52
2022-08-28T13:58:10.239Z,24.54
2022-08-28T14:03:12.241Z,24.54
2022-08-28T14:08:13.801Z,24.51
2022-08-28T14:13:15.496Z,24.53
2022-08-28T14:18:16.949Z,24.57
2022-08-28T14:23:18.562Z,24.60
2022-08-28T14:28:20.057Z,24.46
2022-08-28T14:33:21.587Z,24.31
2022-08-28T14:38:24.507Z,24.33
2022-08-28T14:43:26.700Z,24.32
2022-08-28T14:48:28.130Z,24.41
2022-08-28T14:53:29.570Z,24.35
2022-08-28T14:58:31.015Z,24.43
2022-08-28T15:03:33.656Z,24.29
2022-08-28T15:08:36.588Z,24.21
2022-08-28T15:13:38.097Z,24.23
2022-08-28T15:18:41.160Z,24.38
2022-08-28T15:23:43.049Z,24.30
2022-08-28T15:28:44.989Z,24.11
2022-08-28T15:33:46.436Z,23.98
2022-08-28T15:38:47.987Z,23.96
2022-08-28T15:43:50.228Z,23.89
2022-08-28T15:48:54.390Z,23.91
2022-08-28T15:53:56.073Z,23.84
2022-08-28T15:58:57.543Z,23.84
2022-08-28T16:03:59.065Z,23.83
2022-08-28T16:09:00.567Z,23.77
2022-08-28T16:14:02.252Z,23.69
2022-08-28T16:19:03.833Z,23.68
2022-08-28T16:24:05.371Z,23.62
2022-08-28T16:29:07.304Z,23.53
2022-08-28T16:34:08.884Z,23.57
2022-08-28T16:39:11.966Z,23.45
2022-08-28T16:44:13.418Z,23.41
2022-08-28T16:49:14.991Z,23.41
2022-08-28T16:54:16.799Z,23.30
2022-08-28T16:59:18.266Z,23.09
2022-08-28T17:04:19.827Z,23.08
2022-08-28T17:09:21.347Z,23.10
2022-08-28T17:14:23.493Z,22.91
2022-08-28T17:19:25.039Z,22.97
2022-08-28T17:24:27.023Z,23.00
2022-08-28T17:29:28.599Z,22.74
2022-08-28T17:34:30.519Z,22.77
2022-08-28T17:39:32.526Z,22.73
2022-08-28T17:44:34.092Z,22.63
2022-08-28T17:49:35.570Z,22.44
2022-08-28T17:54:37.127Z,22.23
2022-08-28T17:59:38.603Z,22.17
2022-08-28T18:04:40.087Z,22.06
2022-08-28T18:09:41.737Z,21.90
2022-08-28T18:14:43.246Z,21.69
2022-08-28T18:19:44.862Z,21.66
2022-08-28T18:24:51.031Z,21.49
2022-08-28T18:29:53.047Z,21.43
2022-08-28T18:34:54.523Z,21.39
2022-08-28T18:39:56.041Z,21.14
2022-08-28T18:44:57.791Z,21.03
2022-08-28T18:49:59.331Z,20.74
2022-08-28T18:55:01.085Z,20.75
2022-08-28T19:00:07.505Z,20.66
2022-08-28T19:05:10.390Z,20.44
2022-08-28T19:10:28.356Z,20.42
2022-08-28T19:15:34.982Z,20.31
2022-08-28T19:20:36.521Z,20.18
2022-08-28T19:25:37.970Z,20.04
2022-08-28T19:30:39.607Z,20.05
2022-08-28T19:35:41.066Z,19.73
2022-08-28T19:40:42.613Z,19.81
2022-08-28T19:45:45.141Z,19.89
2022-08-28T19:50:46.582Z,19.77
2022-08-28T19:55:48.051Z,19.52
2022-08-28T20:00:49.516Z,19.35
2022-08-28T20:05:50.978Z,19.16
2022-08-28T20:10:52.445Z,18.97
2022-08-28T20:15:53.918Z,18.99
2022-08-28T20:20:55.474Z,18.94
2022-08-28T20:25:57.054Z,18.65
2022-08-28T20:30:58.765Z,18.72
2022-08-28T20:36:01.898Z,18.71
2022-08-28T20:41:15.923Z,18.23
2022-08-28T20:46:18.424Z,18.40
2022-08-28T20:51:19.963Z,18.48
2022-08-28T20:56:21.411Z,18.32
2022-08-28T21:01:22.881Z,18.19
2022-08-28T21:06:24.367Z,18.21
2022-08-28T21:11:27.279Z,18.36
2022-08-28T21:16:28.807Z,17.90
2022-08-28T21:21:30.434Z,17.97
2022-08-28T21:26:32.299Z,17.92
2022-08-28T21:31:34.398Z,17.74
2022-08-28T21:36:37.491Z,17.83
2022-08-28T21:41:40.076Z,17.92
2022-08-28T21:46:41.642Z,17.67
2022-08-28T21:51:43.259Z,17.58
2022-08-28T21:56:44.802Z,17.38
2022-08-28T22:01:46.280Z,17.56
2022-08-28T22:06:47.926Z,17.42
2022-08-28T22:11:49.425Z,17.17
2022-08-28T22:16:51.040Z,17.21
2022-08-28T22:21:52.673Z,17.07
2022-08-28T22:26:57.413Z,16.92
2022-08-28T22:31:59.398Z,16.87
2022-08-28T22:37:00.982Z,16.93
2022-08-28T22:42:02.453Z,16.96
2022-08-28T22:47:04.217Z,16.91
2022-08-28T22:52:06.095Z,16.67
2022-08-28T22:57:07.711Z,16.52
2022-08-28T23:02:10.456Z,16.87
2022-08-28T23:07:12.035Z,16.80
2022-08-28T23:12:15.051Z,16.65
2022-08-28T23:17:17.864Z,16.79
2022-08-28T23:22:20.355Z,16.66
2022-08-28T23:27:37.175Z,16.26
2022-08-28T23:32:38.918Z,15.95
2022-08-28T23:37:43.672Z,16.28
2022-08-28T23:42:50.187Z,16.18
2022-08-28T23:47:51.707Z,16.01
2022-08-28T23:52:53.513Z,16.09
2022-08-28T23:57:55.062Z,15.97
